createdAt,value
2023-06-30T00:00:38.297Z,94945.00
2023-06-30T00:01:38.367Z,94942.00
2023-06-30T00:02:38.476Z,94944.00
2023-06-30T00:03:38.504Z,94942.00
2023-06-30T00:04:38.487Z,94944.00
2023-06-30T00:05:38.521Z,94944.00
2023-06-30T00:06:38.548Z,94942.00
2023-06-30T00:07:38.895Z,94940.00
2023-06-30T00:08:38.654Z,94938.00
2023-06-30T00:09:38.669Z,94930.00
2023-06-30T00:10:38.732Z,94928.00
2023-06-30T00:11:38.753Z,94926.00
2023-06-30T00:12:38.796Z,94928.00
2023-06-30T00:13:38.827Z,94924.00
2023-06-30T00:14:38.853Z,94924.00
2023-06-30T00:15:38.935Z,94920.00
2023-06-30T00:16:38.979Z,94922.00
2023-06-30T00:17:39.059Z,94920.00
2023-06-30T00:18:39.041Z,94918.00
2023-06-30T00:19:39.092Z,94914.00
2023-06-30T00:20:39.140Z,94912.00
2023-06-30T00:21:39.169Z,94910.00
2023-06-30T00:22:39.184Z,94910.00
2023-06-30T00:23:39.264Z,94910.00
2023-06-30T00:24:39.287Z,94912.00
2023-06-30T00:25:39.326Z,94910.00
2023-06-30T00:26:39.390Z,94912.00
2023-06-30T00:27:39.415Z,94918.00
2023-06-30T00:28:39.446Z,94914.00
2023-06-30T00:29:39.468Z,94914.00
2023-06-30T00:30:39.540Z,94916.00
2023-06-30T00:31:39.657Z,94916.00
2023-06-30T00:32:39.666Z,94910.00
2023-06-30T00:33:39.653Z,94912.00
2023-06-30T00:34:39.703Z,94912.00
2023-06-30T00:35:39.754Z,94914.00
2023-06-30T00:36:39.770Z,94910.00
2023-06-30T00:37:39.824Z,94910.00
2023-06-30T00:38:39.955Z,94910.00
2023-06-30T00:39:39.891Z,94904.00
2023-06-30T00:40:39.945Z,94902.00
2023-06-30T00:41:39.989Z,94900.00
2023-06-30T00:42:40.033Z,94897.00
2023-06-30T00:43:40.069Z,94899.00
2023-06-30T00:44:40.130Z,94895.00
2023-06-30T00:45:40.164Z,94895.00
2023-06-30T00:46:40.237Z,94895.00
2023-06-30T00:47:40.315Z,94897.00
2023-06-30T00:48:40.276Z,94893.00
2023-06-30T00:49:40.314Z,94895.00
2023-06-30T00:50:40.385Z,94895.00
2023-06-30T00:51:40.413Z,94897.00
2023-06-30T00:52:40.457Z,94897.00
2023-06-30T00:53:40.507Z,94893.00
2023-06-30T00:54:40.552Z,94893.00
2023-06-30T00:55:40.577Z,94889.00
2023-06-30T00:56:40.607Z,94889.00
2023-06-30T00:57:40.675Z,94887.00
2023-06-30T00:58:40.707Z,94887.00
2023-06-30T00:59:40.753Z,94889.00
2023-06-30T01:00:40.801Z,94891.00
2023-06-30T01:01:40.826Z,94889.00
2023-06-30T01:02:40.949Z,94893.00
2023-06-30T01:03:41.007Z,94891.00
2023-06-30T01:04:41.044Z,94889.00
2023-06-30T01:05:41.043Z,94887.00
2023-06-30T01:06:41.044Z,94885.00
2023-06-30T01:07:41.141Z,94885.00
2023-06-30T01:08:41.113Z,94881.00
2023-06-30T01:09:41.186Z,94881.00
2023-06-30T01:10:41.224Z,94873.00
2023-06-30T01:11:41.256Z,94873.00
2023-06-30T01:12:41.293Z,94871.00
2023-06-30T01:13:41.351Z,94867.00
2023-06-30T01:14:41.398Z,94867.00
2023-06-30T01:15:41.418Z,94865.00
2023-06-30T01:16:41.541Z,94865.00
2023-06-30T01:17:41.610Z,94861.00
2023-06-30T01:18:41.546Z,94861.00
2023-06-30T01:19:41.565Z,94853.00
2023-06-30T01:20:41.617Z,94853.00
2023-06-30T01:21:41.689Z,94850.00
2023-06-30T01:22:41.702Z,94848.00
2023-06-30T01:23:41.761Z,94844.00
2023-06-30T01:24:41.834Z,94842.00
2023-06-30T01:25:41.813Z,94842.00
2023-06-30T01:26:41.865Z,94842.00
2023-06-30T01:27:41.899Z,94842.00
2023-06-30T01:28:41.963Z,94842.00
2023-06-30T01:29:42.019Z,94842.00
2023-06-30T01:30:42.083Z,94840.00
2023-06-30T01:31:42.117Z,94842.00
2023-06-30T01:32:42.176Z,94844.00
2023-06-30T01:33:42.178Z,94842.00
2023-06-30T01:34:42.234Z,94844.00
2023-06-30T01:35:42.315Z,94844.00
2023-06-30T01:36:42.313Z,94846.00
2023-06-30T01:37:42.340Z,94844.00
2023-06-30T01:38:42.400Z,94842.00
2023-06-30T01:39:42.446Z,94844.00
2023-06-30T01:40:42.492Z,94840.00
2023-06-30T01:41:42.516Z,94842.00
2023-06-30T01:42:42.550Z,94842.00
2023-06-30T01:43:42.617Z,94840.00
2023-06-30T01:44:42.647Z,94842.00
2023-06-30T01:45:42.767Z,94840.00
2023-06-30T01:46:42.870Z,94840.00
2023-06-30T01:47:42.767Z,94840.00
2023-06-30T01:48:42.831Z,94840.00
2023-06-30T01:49:42.850Z,94836.00
2023-06-30T01:50:42.875Z,94838.00
2023-06-30T01:51:42.908Z,94840.00
2023-06-30T01:52:42.995Z,94840.00
2023-06-30T01:53:43.012Z,94840.00
2023-06-30T01:54:43.059Z,94838.00
2023-06-30T01:55:43.145Z,94836.00
2023-06-30T01:56:43.158Z,94834.00
2023-06-30T01:57:43.177Z,94834.00
2023-06-30T01:58:43.242Z,94834.00
2023-06-30T01:59:43.293Z,94832.00
2023-06-30T02:00:43.304Z,94830.00
2023-06-30T02:01:43.358Z,94830.00
2023-06-30T02:02:43.472Z,94832.00
2023-06-30T02:03:43.513Z,94834.00
2023-06-30T02:04:43.447Z,94836.00
2023-06-30T02:05:43.776Z,94838.00
2023-06-30T02:06:43.550Z,94840.00
2023-06-30T02:07:43.583Z,94840.00
2023-06-30T02:08:43.631Z,94840.00
2023-06-30T02:09:48.460Z,94840.00
2023-06-30T02:10:44.687Z,94840.00
2023-06-30T02:11:43.653Z,94842.00
2023-06-30T02:12:43.638Z,94842.00
2023-06-30T02:13:43.655Z,94844.00
2023-06-30T02:14:43.616Z,94846.00
2023-06-30T02:15:43.868Z,94846.00
2023-06-30T02:16:43.676Z,94844.00
2023-06-30T02:17:43.666Z,94838.00
2023-06-30T02:18:43.604Z,94826.00
2023-06-30T02:19:43.581Z,94822.00
2023-06-30T02:20:43.613Z,94816.00
2023-06-30T02:21:43.586Z,94813.00
2023-06-30T02:22:43.587Z,94814.00
2023-06-30T02:23:43.572Z,94814.00
2023-06-30T02:24:43.642Z,94820.00
2023-06-30T02:25:43.973Z,94818.00
2023-06-30T02:26:43.734Z,94824.00
2023-06-30T02:27:43.801Z,94822.00
2023-06-30T02:28:43.807Z,94818.00
2023-06-30T02:29:43.868Z,94820.00
2023-06-30T02:30:43.916Z,94814.00
2023-06-30T02:31:44.020Z,94816.00
2023-06-30T02:32:44.017Z,94814.00
2023-06-30T02:33:44.044Z,94814.00
2023-06-30T02:34:44.104Z,94814.00
2023-06-30T02:35:44.547Z,94816.00
2023-06-30T02:36:44.176Z,94816.00
2023-06-30T02:37:44.224Z,94816.00
2023-06-30T02:38:44.273Z,94816.00
2023-06-30T02:39:44.332Z,94816.00
2023-06-30T02:40:44.357Z,94818.00
2023-06-30T02:41:44.424Z,94818.00
2023-06-30T02:42:44.464Z,94814.00
2023-06-30T02:43:44.457Z,94814.00
2023-06-30T02:44:44.534Z,94820.00
2023-06-30T02:45:45.017Z,94818.00
2023-06-30T02:46:44.633Z,94820.00
2023-06-30T02:47:44.755Z,94820.00
2023-06-30T02:48:44.715Z,94814.00
2023-06-30T02:49:44.778Z,94814.00
2023-06-30T02:50:44.799Z,94814.00
2023-06-30T02:51:44.851Z,94813.00
2023-06-30T02:52:44.912Z,94813.00
2023-06-30T02:53:44.954Z,94813.00
2023-06-30T02:54:44.988Z,94811.00
2023-06-30T02:55:45.328Z,94811.00
2023-06-30T02:56:45.080Z,94809.00
2023-06-30T02:57:45.119Z,94809.00
2023-06-30T02:58:45.169Z,94807.00
2023-06-30T02:59:45.229Z,94805.00
2023-06-30T03:00:45.276Z,94803.00
2023-06-30T03:01:45.417Z,94803.00
2023-06-30T03:02:45.394Z,94801.00
2023-06-30T03:03:45.534Z,94801.00
2023-06-30T03:04:45.432Z,94803.00
2023-06-30T03:05:45.682Z,94803.00
2023-06-30T03:06:45.563Z,94801.00
2023-06-30T03:07:45.573Z,94801.00
2023-06-30T03:08:45.618Z,94801.00
2023-06-30T03:09:45.669Z,94799.00
2023-06-30T03:10:45.708Z,94799.00
2023-06-30T03:11:45.778Z,94795.00
2023-06-30T03:12:45.788Z,94797.00
2023-06-30T03:13:45.830Z,94793.00
2023-06-30T03:14:45.923Z,94795.00
2023-06-30T03:15:46.251Z,94795.00
2023-06-30T03:16:46.106Z,94791.00
2023-06-30T03:17:46.066Z,94791.00
2023-06-30T03:18:46.101Z,94789.00
2023-06-30T03:19:46.136Z,94791.00
2023-06-30T03:20:46.197Z,94787.00
2023-06-30T03:21:46.239Z,94787.00
2023-06-30T03:22:46.281Z,94793.00
2023-06-30T03:23:46.339Z,94787.00
2023-06-30T03:24:46.366Z,94789.00
2023-06-30T03:25:46.820Z,94789.00
2023-06-30T03:26:46.467Z,94789.00
2023-06-30T03:27:46.517Z,94789.00
2023-06-30T03:28:46.576Z,94787.00
2023-06-30T03:29:46.602Z,94787.00
2023-06-30T03:30:46.712Z,94783.00
2023-06-30T03:31:46.719Z,94783.00
2023-06-30T03:32:46.806Z,94785.00
2023-06-30T03:33:46.810Z,94781.00
2023-06-30T03:34:46.892Z,94783.00
2023-06-30T03:35:47.142Z,94781.00
2023-06-30T03:36:46.960Z,94779.00
2023-06-30T03:37:47.032Z,94779.00
2023-06-30T03:38:47.068Z,94781.00
2023-06-30T03:39:47.092Z,94781.00
2023-06-30T03:40:47.209Z,94783.00
2023-06-30T03:41:47.216Z,94785.00
2023-06-30T03:42:47.252Z,94785.00
2023-06-30T03:43:47.304Z,94785.00
2023-06-30T03:44:47.329Z,94785.00
2023-06-30T03:45:47.726Z,94785.00
2023-06-30T03:46:47.484Z,94783.00
2023-06-30T03:47:47.584Z,94783.00
2023-06-30T03:48:47.531Z,94783.00
2023-06-30T03:49:47.578Z,94785.00
2023-06-30T03:50:47.606Z,94783.00
2023-06-30T03:51:47.656Z,94783.00
2023-06-30T03:52:47.695Z,94783.00
2023-06-30T03:53:47.748Z,94783.00
2023-06-30T03:54:47.797Z,94785.00
2023-06-30T03:55:48.016Z,94783.00
2023-06-30T03:56:47.921Z,94783.00
2023-06-30T03:57:47.958Z,94785.00
2023-06-30T03:58:48.043Z,94781.00
2023-06-30T03:59:48.077Z,94781.00
2023-06-30T04:00:48.133Z,94777.00
2023-06-30T04:01:48.195Z,94777.00
2023-06-30T04:02:48.264Z,94771.00
2023-06-30T04:03:48.432Z,94775.00
2023-06-30T04:04:48.354Z,94777.00
2023-06-30T04:05:48.371Z,94777.00
2023-06-30T04:06:48.411Z,94779.00
2023-06-30T04:07:48.603Z,94777.00
2023-06-30T04:08:48.537Z,94779.00
2023-06-30T04:09:48.613Z,94779.00
2023-06-30T04:10:48.660Z,94773.00
2023-06-30T04:11:48.674Z,94773.00
2023-06-30T04:12:48.744Z,94769.00
2023-06-30T04:13:48.797Z,94767.00
2023-06-30T04:14:48.834Z,94764.00
2023-06-30T04:15:48.883Z,94762.00
2023-06-30T04:16:48.996Z,94764.00
2023-06-30T04:17:49.046Z,94760.00
2023-06-30T04:18:49.024Z,94764.00
2023-06-30T04:19:49.082Z,94760.00
2023-06-30T04:20:49.129Z,94762.00
2023-06-30T04:21:49.222Z,94762.00
2023-06-30T04:22:49.230Z,94762.00
2023-06-30T04:23:49.289Z,94762.00
2023-06-30T04:24:49.361Z,94760.00
2023-06-30T04:25:49.401Z,94756.00
2023-06-30T04:26:49.434Z,94750.00
2023-06-30T04:27:49.491Z,94752.00
2023-06-30T04:28:49.522Z,94750.00
2023-06-30T04:29:49.576Z,94748.00
2023-06-30T04:30:49.646Z,94748.00
2023-06-30T04:31:49.689Z,94748.00
2023-06-30T04:32:49.824Z,94748.00
2023-06-30T04:33:49.792Z,94752.00
2023-06-30T04:34:49.846Z,94752.00
2023-06-30T04:35:50.010Z,94752.00
2023-06-30T04:36:49.921Z,94750.00
2023-06-30T04:37:49.989Z,94752.00
2023-06-30T04:38:50.104Z,94748.00
2023-06-30T04:39:50.143Z,94748.00
2023-06-30T04:40:50.150Z,94748.00
2023-06-30T04:41:50.207Z,94746.00
2023-06-30T04:42:50.240Z,94746.00
2023-06-30T04:43:50.284Z,94744.00
2023-06-30T04:44:50.348Z,94744.00
2023-06-30T04:45:50.443Z,94742.00
2023-06-30T04:46:50.433Z,94740.00
2023-06-30T04:47:50.607Z,94740.00
2023-06-30T04:48:50.529Z,94740.00
2023-06-30T04:49:50.597Z,94738.00
2023-06-30T04:50:50.632Z,94736.00
2023-06-30T04:51:50.725Z,94734.00
2023-06-30T04:52:50.759Z,94734.00
2023-06-30T04:53:50.789Z,94732.00
2023-06-30T04:54:50.884Z,94734.00
2023-06-30T04:55:50.904Z,94732.00
2023-06-30T04:56:50.975Z,94732.00
2023-06-30T04:57:51.007Z,94730.00
2023-06-30T04:58:51.056Z,94732.00
2023-06-30T04:59:51.120Z,94736.00
2023-06-30T05:00:58.670Z,94742.00
2023-06-30T05:01:51.304Z,94744.00
2023-06-30T05:02:51.258Z,94746.00
2023-06-30T05:03:51.231Z,94746.00
2023-06-30T05:04:51.166Z,94748.00
2023-06-30T05:05:51.193Z,94744.00
2023-06-30T05:06:51.136Z,94742.00
2023-06-30T05:07:51.142Z,94742.00
2023-06-30T05:08:51.096Z,94740.00
2023-06-30T05:09:51.101Z,94740.00
2023-06-30T05:10:51.087Z,94740.00
2023-06-30T05:11:51.121Z,94740.00
2023-06-30T05:12:51.079Z,94742.00
2023-06-30T05:13:51.077Z,94742.00
2023-06-30T05:14:51.048Z,94738.00
2023-06-30T05:15:51.258Z,94736.00
2023-06-30T05:16:51.129Z,94734.00
2023-06-30T05:17:51.113Z,94734.00
2023-06-30T05:18:51.110Z,94732.00
2023-06-30T05:19:51.140Z,94730.00
2023-06-30T05:20:51.193Z,94730.00
2023-06-30T05:21:51.284Z,94734.00
2023-06-30T05:22:51.308Z,94732.00
2023-06-30T05:23:51.361Z,94732.00
2023-06-30T05:24:51.435Z,94732.00
2023-06-30T05:25:51.465Z,94736.00
2023-06-30T05:26:51.543Z,94732.00
2023-06-30T05:27:51.556Z,94734.00
2023-06-30T05:29:00.497Z,94736.00
2023-06-30T05:29:52.617Z,94734.00
2023-06-30T05:30:51.600Z,94734.00
2023-06-30T05:31:51.958Z,94734.00
2023-06-30T05:32:52.378Z,94734.00
2023-06-30T05:33:51.584Z,94732.00
2023-06-30T05:34:51.559Z,94734.00
2023-06-30T05:35:51.574Z,94732.00
2023-06-30T05:36:52.790Z,94732.00
2023-06-30T05:37:51.559Z,94734.00
2023-06-30T05:38:51.564Z,94736.00
2023-06-30T05:39:51.574Z,94728.00
2023-06-30T05:40:51.529Z,94738.00
2023-06-30T05:41:51.823Z,94734.00
2023-06-30T05:42:51.508Z,94734.00
2023-06-30T05:43:51.580Z,94734.00
2023-06-30T05:44:51.530Z,94736.00
2023-06-30T05:45:59.052Z,94738.00
2023-06-30T05:46:51.901Z,94740.00
2023-06-30T05:47:51.584Z,94740.00
2023-06-30T05:48:51.509Z,94734.00
2023-06-30T05:49:51.592Z,94736.00
2023-06-30T05:50:51.505Z,94734.00
2023-06-30T05:51:51.513Z,94736.00
2023-06-30T05:52:51.528Z,94738.00
2023-06-30T05:53:51.516Z,94740.00
2023-06-30T05:54:51.504Z,94738.00
2023-06-30T05:55:51.493Z,94740.00
2023-06-30T05:56:51.861Z,94736.00
2023-06-30T05:57:51.454Z,94738.00
2023-06-30T05:58:51.470Z,94740.00
2023-06-30T05:59:51.441Z,94744.00
2023-06-30T06:00:51.435Z,94744.00
2023-06-30T06:01:51.791Z,94746.00
2023-06-30T06:02:51.568Z,94750.00
2023-06-30T06:03:51.735Z,94746.00
2023-06-30T06:04:51.585Z,94750.00
2023-06-30T06:05:51.826Z,94752.00
2023-06-30T06:06:51.869Z,94752.00
2023-06-30T06:07:51.388Z,94752.00
2023-06-30T06:08:51.467Z,94756.00
2023-06-30T06:09:51.406Z,94754.00
2023-06-30T06:10:52.339Z,94754.00
2023-06-30T06:11:51.371Z,94754.00
2023-06-30T06:12:51.392Z,94756.00
2023-06-30T06:13:51.359Z,94756.00
2023-06-30T06:14:51.355Z,94756.00
2023-06-30T06:15:51.319Z,94754.00
2023-06-30T06:16:51.381Z,94752.00
2023-06-30T06:17:51.421Z,94756.00
2023-06-30T06:18:51.446Z,94754.00
2023-06-30T06:19:51.368Z,94756.00
2023-06-30T06:20:51.382Z,94756.00
2023-06-30T06:21:51.363Z,94758.00
2023-06-30T06:22:51.859Z,94758.00
2023-06-30T06:23:51.396Z,94758.00
2023-06-30T06:24:51.478Z,94758.00
2023-06-30T06:25:51.554Z,94758.00
2023-06-30T06:26:51.391Z,94760.00
2023-06-30T06:27:51.863Z,94758.00
2023-06-30T06:28:51.470Z,94758.00
2023-06-30T06:29:51.485Z,94758.00
2023-06-30T06:30:51.579Z,94762.00
2023-06-30T06:31:51.565Z,94760.00
2023-06-30T06:32:51.889Z,94758.00
2023-06-30T06:33:53.296Z,94758.00
2023-06-30T06:34:51.614Z,94762.00
2023-06-30T06:35:51.619Z,94762.00
2023-06-30T06:36:51.609Z,94760.00
2023-06-30T06:37:51.565Z,94760.00
2023-06-30T06:38:51.592Z,94760.00
2023-06-30T06:39:51.582Z,94754.00
2023-06-30T06:40:51.603Z,94756.00
2023-06-30T06:41:51.553Z,94756.00
2023-06-30T06:42:51.838Z,94754.00
2023-06-30T06:43:51.539Z,94748.00
2023-06-30T06:44:51.607Z,94748.00
2023-06-30T06:45:51.527Z,94748.00
2023-06-30T06:46:51.510Z,94750.00
2023-06-30T06:47:51.928Z,94750.00
2023-06-30T06:48:51.562Z,94750.00
2023-06-30T06:49:51.515Z,94752.00
2023-06-30T06:50:51.528Z,94752.00
2023-06-30T06:51:51.528Z,94756.00
2023-06-30T06:52:51.861Z,94758.00
2023-06-30T06:53:51.485Z,94760.00
2023-06-30T06:54:51.469Z,94758.00
2023-06-30T06:55:51.516Z,94758.00
2023-06-30T06:56:51.460Z,94758.00
2023-06-30T06:57:51.443Z,94764.00
2023-06-30T06:58:51.488Z,94760.00
2023-06-30T06:59:51.761Z,94760.00
2023-06-30T07:00:51.439Z,94760.00
2023-06-30T07:01:51.465Z,94758.00
2023-06-30T07:02:51.489Z,94760.00
2023-06-30T07:03:51.443Z,94756.00
2023-06-30T07:04:51.402Z,94758.00
2023-06-30T07:05:51.410Z,94752.00
2023-06-30T07:06:51.396Z,94752.00
2023-06-30T07:07:51.893Z,94752.00
2023-06-30T07:08:51.383Z,94750.00
2023-06-30T07:09:51.371Z,94748.00
2023-06-30T07:10:51.462Z,94752.00
2023-06-30T07:11:51.354Z,94752.00
2023-06-30T07:12:51.378Z,94752.00
2023-06-30T07:13:51.341Z,94752.00
2023-06-30T07:14:51.345Z,94754.00
2023-06-30T07:15:51.482Z,94754.00
2023-06-30T07:16:51.360Z,94756.00
2023-06-30T07:17:51.508Z,94758.00
2023-06-30T07:18:51.306Z,94758.00
2023-06-30T07:19:51.289Z,94756.00
2023-06-30T07:20:51.306Z,94756.00
2023-06-30T07:21:51.335Z,94756.00
2023-06-30T07:22:51.284Z,94752.00
2023-06-30T07:23:51.325Z,94754.00
2023-06-30T07:24:51.356Z,94754.00
2023-06-30T07:25:51.436Z,94752.00
2023-06-30T07:26:51.481Z,94754.00
2023-06-30T07:27:51.557Z,94756.00
2023-06-30T07:28:51.706Z,94752.00
2023-06-30T07:29:51.676Z,94756.00
2023-06-30T07:30:51.710Z,94754.00
2023-06-30T07:31:51.747Z,94754.00
2023-06-30T07:32:51.875Z,94754.00
2023-06-30T07:33:51.872Z,94756.00
2023-06-30T07:34:51.924Z,94758.00
2023-06-30T07:35:51.978Z,94756.00
2023-06-30T07:36:52.018Z,94758.00
2023-06-30T07:37:52.370Z,94760.00
2023-06-30T07:38:52.181Z,94760.00
2023-06-30T07:39:52.209Z,94762.00
2023-06-30T07:40:56.539Z,94762.00
2023-06-30T07:41:52.306Z,94762.00
2023-06-30T07:42:52.257Z,94764.00
2023-06-30T07:43:52.241Z,94764.00
2023-06-30T07:44:52.231Z,94760.00
2023-06-30T07:45:52.255Z,94760.00
2023-06-30T07:46:52.237Z,94760.00
2023-06-30T07:47:52.333Z,94758.00
2023-06-30T07:48:52.294Z,94758.00
2023-06-30T07:49:52.194Z,94758.00
2023-06-30T07:51:06.884Z,94758.00
2023-06-30T07:51:53.189Z,94758.00
2023-06-30T07:52:52.175Z,94760.00
2023-06-30T07:53:52.220Z,94760.00
2023-06-30T07:54:52.141Z,94760.00
2023-06-30T07:55:52.152Z,94758.00
2023-06-30T07:56:52.116Z,94758.00
2023-06-30T07:57:52.411Z,94754.00
2023-06-30T07:58:52.152Z,94754.00
2023-06-30T07:59:52.164Z,94750.00
2023-06-30T08:00:52.195Z,94750.00
2023-06-30T08:01:52.115Z,94750.00
2023-06-30T08:02:52.308Z,94746.00
2023-06-30T08:03:52.327Z,94742.00
2023-06-30T08:04:52.165Z,94748.00
2023-06-30T08:05:52.404Z,94746.00
2023-06-30T08:06:52.101Z,94744.00
2023-06-30T08:07:52.203Z,94744.00
2023-06-30T08:08:52.131Z,94744.00
2023-06-30T08:09:52.163Z,94744.00
2023-06-30T08:10:52.184Z,94746.00
2023-06-30T08:11:52.290Z,94748.00
2023-06-30T08:12:52.272Z,94750.00
2023-06-30T08:13:52.352Z,94752.00
2023-06-30T08:14:52.328Z,94748.00
2023-06-30T08:15:52.532Z,94748.00
2023-06-30T08:16:52.580Z,94748.00
2023-06-30T08:17:57.465Z,94752.00
2023-06-30T08:18:53.539Z,94750.00
2023-06-30T08:19:52.545Z,94750.00
2023-06-30T08:20:52.443Z,94748.00
2023-06-30T08:21:52.488Z,94744.00
2023-06-30T08:22:52.935Z,94744.00
2023-06-30T08:23:52.473Z,94742.00
2023-06-30T08:24:53.376Z,94742.00
2023-06-30T08:25:52.543Z,94742.00
2023-06-30T08:26:52.574Z,94738.00
2023-06-30T08:27:52.935Z,94738.00
2023-06-30T08:28:52.619Z,94734.00
2023-06-30T08:29:52.619Z,94734.00
2023-06-30T08:30:52.675Z,94734.00
2023-06-30T08:31:52.676Z,94732.00
2023-06-30T08:32:52.962Z,94732.00
2023-06-30T08:33:52.679Z,94736.00
2023-06-30T08:34:52.692Z,94732.00
2023-06-30T08:35:52.712Z,94736.00
2023-06-30T08:36:52.738Z,94736.00
2023-06-30T08:37:54.202Z,94736.00
2023-06-30T08:38:52.740Z,94738.00
2023-06-30T08:39:52.704Z,94740.00
2023-06-30T08:40:52.751Z,94736.00
2023-06-30T08:41:52.743Z,94734.00
2023-06-30T08:42:52.692Z,94734.00
2023-06-30T08:43:52.716Z,94734.00
2023-06-30T08:44:52.702Z,94730.00
2023-06-30T08:45:52.796Z,94727.00
2023-06-30T08:46:52.877Z,94728.00
2023-06-30T08:47:52.883Z,94727.00
2023-06-30T08:48:52.900Z,94727.00
2023-06-30T08:49:52.949Z,94727.00
2023-06-30T08:50:53.023Z,94728.00
2023-06-30T08:51:53.051Z,94728.00
2023-06-30T08:52:53.131Z,94728.00
2023-06-30T08:53:53.404Z,94728.00
2023-06-30T08:54:53.253Z,94728.00
2023-06-30T08:55:53.305Z,94730.00
2023-06-30T08:56:53.367Z,94732.00
2023-06-30T08:57:53.491Z,94734.00
2023-06-30T08:58:53.492Z,94736.00
2023-06-30T08:59:53.624Z,94734.00
2023-06-30T09:00:53.712Z,94740.00
2023-06-30T09:01:53.690Z,94738.00
2023-06-30T09:02:53.755Z,94738.00
2023-06-30T09:03:54.002Z,94742.00
2023-06-30T09:04:53.917Z,94742.00
2023-06-30T09:05:53.954Z,94742.00
2023-06-30T09:06:53.993Z,94740.00
2023-06-30T09:07:54.020Z,94744.00
2023-06-30T09:08:54.114Z,94744.00
2023-06-30T09:09:54.158Z,94740.00
2023-06-30T09:10:54.238Z,94742.00
2023-06-30T09:11:54.275Z,94740.00
2023-06-30T09:12:54.342Z,94740.00
2023-06-30T09:13:54.430Z,94744.00
2023-06-30T09:14:54.507Z,94742.00
2023-06-30T09:15:54.549Z,94746.00
2023-06-30T09:16:54.594Z,94748.00
2023-06-30T09:17:54.623Z,94748.00
2023-06-30T09:18:54.961Z,94748.00
2023-06-30T09:19:54.816Z,94750.00
2023-06-30T09:20:54.835Z,94748.00
2023-06-30T09:21:54.852Z,94748.00
2023-06-30T09:22:56.782Z,94748.00
2023-06-30T09:23:55.446Z,94744.00
2023-06-30T09:24:55.015Z,94742.00
2023-06-30T09:25:55.146Z,94736.00
2023-06-30T09:26:55.133Z,94732.00
2023-06-30T09:27:55.234Z,94732.00
2023-06-30T09:28:55.549Z,94727.00
2023-06-30T09:29:55.446Z,94727.00
2023-06-30T09:30:55.429Z,94727.00
2023-06-30T09:31:55.521Z,94727.00
2023-06-30T09:32:55.565Z,94730.00
2023-06-30T09:33:55.530Z,94727.00
2023-06-30T09:34:55.602Z,94730.00
2023-06-30T09:35:55.578Z,94728.00
2023-06-30T09:36:55.688Z,94727.00
2023-06-30T09:37:55.680Z,94728.00
2023-06-30T09:38:55.627Z,94727.00
2023-06-30T09:39:55.661Z,94725.00
2023-06-30T09:40:55.620Z,94725.00
2023-06-30T09:41:55.669Z,94720.00
2023-06-30T09:42:55.740Z,94717.00
2023-06-30T09:43:55.797Z,94715.00
2023-06-30T09:44:55.855Z,94711.00
2023-06-30T09:45:55.931Z,94711.00
2023-06-30T09:46:55.993Z,94707.00
2023-06-30T09:47:56.190Z,94707.00
2023-06-30T09:48:56.454Z,94705.00
2023-06-30T09:49:56.171Z,94703.00
2023-06-30T09:50:56.187Z,94703.00
2023-06-30T09:51:56.244Z,94703.00
2023-06-30T09:52:56.317Z,94701.00
2023-06-30T09:53:56.433Z,94701.00
2023-06-30T09:54:56.441Z,94701.00
2023-06-30T09:55:56.509Z,94701.00
2023-06-30T09:56:56.510Z,94699.00
2023-06-30T09:57:56.589Z,94703.00
2023-06-30T09:58:58.001Z,94705.00
2023-06-30T09:59:56.947Z,94707.00
2023-06-30T10:00:56.705Z,94707.00
2023-06-30T10:01:56.799Z,94707.00
2023-06-30T10:02:56.824Z,94707.00
2023-06-30T10:03:57.074Z,94707.00
2023-06-30T10:04:56.810Z,94705.00
2023-06-30T10:05:56.920Z,94707.00
2023-06-30T10:06:56.953Z,94709.00
2023-06-30T10:07:56.963Z,94709.00
2023-06-30T10:08:57.011Z,94709.00
2023-06-30T10:09:57.464Z,94711.00
2023-06-30T10:10:57.175Z,94711.00
2023-06-30T10:11:57.078Z,94711.00
2023-06-30T10:12:57.184Z,94711.00
2023-06-30T10:13:57.182Z,94711.00
2023-06-30T10:14:57.241Z,94709.00
2023-06-30T10:15:57.266Z,94709.00
2023-06-30T10:16:57.349Z,94707.00
2023-06-30T10:17:57.449Z,94707.00
2023-06-30T10:18:57.419Z,94707.00
2023-06-30T10:19:57.491Z,94707.00
2023-06-30T10:20:57.538Z,94707.00
2023-06-30T10:21:57.639Z,94711.00
2023-06-30T10:22:57.676Z,94711.00
2023-06-30T10:23:57.690Z,94711.00
2023-06-30T10:24:57.845Z,94711.00
2023-06-30T10:25:58.058Z,94715.00
2023-06-30T10:26:57.897Z,94715.00
2023-06-30T10:27:57.942Z,94715.00
2023-06-30T10:28:58.005Z,94717.00
2023-06-30T10:29:58.102Z,94717.00
2023-06-30T10:30:58.143Z,94719.00
2023-06-30T10:31:58.284Z,94717.00
2023-06-30T10:32:58.339Z,94715.00
2023-06-30T10:33:58.343Z,94717.00
2023-06-30T10:34:58.540Z,94715.00
2023-06-30T10:35:58.466Z,94717.00
2023-06-30T10:36:58.511Z,94715.00
2023-06-30T10:37:58.567Z,94713.00
2023-06-30T10:38:58.585Z,94719.00
2023-06-30T10:39:58.950Z,94713.00
2023-06-30T10:40:58.721Z,94715.00
2023-06-30T10:41:58.757Z,94709.00
2023-06-30T10:42:58.765Z,94713.00
2023-06-30T10:43:58.839Z,94713.00
2023-06-30T10:44:58.868Z,94711.00
2023-06-30T10:45:58.891Z,94711.00
2023-06-30T10:46:59.072Z,94711.00
2023-06-30T10:47:59.026Z,94707.00
2023-06-30T10:48:58.994Z,94707.00
2023-06-30T10:49:59.070Z,94705.00
2023-06-30T10:50:59.106Z,94705.00
2023-06-30T10:51:59.188Z,94705.00
2023-06-30T10:52:59.201Z,94701.00
2023-06-30T10:53:59.239Z,94703.00
2023-06-30T10:54:59.494Z,94701.00
2023-06-30T10:55:59.329Z,94697.00
2023-06-30T10:56:59.347Z,94695.00
2023-06-30T10:57:59.404Z,94697.00
2023-06-30T10:58:59.441Z,94697.00
2023-06-30T10:59:59.958Z,94693.00
2023-06-30T11:00:59.500Z,94693.00
2023-06-30T11:01:59.529Z,94691.00
2023-06-30T11:02:59.743Z,94691.00
2023-06-30T11:03:59.963Z,94687.00
2023-06-30T11:05:00.015Z,94685.00
2023-06-30T11:05:59.678Z,94685.00
2023-06-30T11:06:59.765Z,94687.00
2023-06-30T11:07:59.754Z,94683.00
2023-06-30T11:08:59.776Z,94681.00
2023-06-30T11:09:59.857Z,94683.00
2023-06-30T11:10:59.865Z,94685.00
2023-06-30T11:11:59.888Z,94674.00
2023-06-30T11:12:59.988Z,94672.00
2023-06-30T11:13:59.997Z,94674.00
2023-06-30T11:15:00.105Z,94672.00
2023-06-30T11:16:00.124Z,94672.00
2023-06-30T11:17:00.134Z,94670.00
2023-06-30T11:18:00.275Z,94666.00
2023-06-30T11:19:00.403Z,94666.00
2023-06-30T11:20:00.460Z,94664.00
2023-06-30T11:21:00.351Z,94662.00
2023-06-30T11:22:00.336Z,94660.00
2023-06-30T11:23:00.357Z,94662.00
2023-06-30T11:24:00.436Z,94662.00
2023-06-30T11:25:00.440Z,94662.00
2023-06-30T11:26:00.483Z,94656.00
2023-06-30T11:27:00.504Z,94656.00
2023-06-30T11:28:00.568Z,94656.00
2023-06-30T11:29:00.592Z,94656.00
2023-06-30T11:30:00.695Z,94652.00
2023-06-30T11:31:03.743Z,94652.00
2023-06-30T11:32:00.660Z,94648.00
2023-06-30T11:33:00.761Z,94650.00
2023-06-30T11:34:00.641Z,94650.00
2023-06-30T11:35:00.643Z,94648.00
2023-06-30T11:36:00.701Z,94646.00
2023-06-30T11:37:00.628Z,94646.00
2023-06-30T11:38:00.643Z,94644.00
2023-06-30T11:39:00.599Z,94640.00
2023-06-30T11:40:00.661Z,94636.00
2023-06-30T11:41:00.719Z,94634.00
2023-06-30T11:42:00.595Z,94636.00
2023-06-30T11:43:00.586Z,94627.00
2023-06-30T11:44:00.596Z,94632.00
2023-06-30T11:45:00.582Z,94630.00